< < Back
Terminal Aerodrome Forecast


Current Version              Previous Versions:   1  2  3  4  5  6  7  8  9  

Terminal Aerodrome Forecast

736
FTUS44 KOHX 231100
TAFCSV
TAF
KCSV 231132Z 2312/2412 14006KT P6SM VCSH OVC015
     FM231400 13012G22KT 4SM -SHRA OVC009
     FM231800 15014G24KT 2SM -RA BR VCTS OVC006CB
     FM240000 18014G24KT 4SM -DZ BR BKN006 OVC011
     FM240600 19014G26KT 5SM -DZ SCT006 OVC011
      TEMPO 2408/2412 2SM -DZ BKN006 OVC011=

Latest METAR

742
SAUS70 KWBC 231300 RRF
MTRCSV
METAR KCSV 231253Z AUTO 14008G17KT 10SM BKN020 13/08 A2998 RMK AO2
SLP145 T01280078


USA.gov is the U.S. government's official web portal to all federal, state and local government web resources and services.